Time;durP1;ratioP1;P1;durP2;ratioP2;P2;SDS_P1;SDS_P2;PMS_P1;PMS_P2;Temp;Humidity;BMP_temperature;BMP_pressure;BME280_temperature;BME280_humidity;BME280_pressure;Samples;Min_cycle;Max_cycle;Signal;HPM_P1;HPM_P2
2023/10/19 00:01:34;;;;;;;1.40;0.60;;;;;;;;;;5076996;28;20706;-64
2023/10/19 00:04:01;;;;;;;1.63;0.57;;;;;;;;;;5068318;28;20211;-63
2023/10/19 00:06:30;;;;;;;1.23;0.80;;;;;;;;;;5068079;28;20208;-63
2023/10/19 00:08:59;;;;;;;0.87;0.80;;;;;;;;;;5079714;28;20209;-64
2023/10/19 00:11:27;;;;;;;0.97;0.70;;;;;;;;;;5098561;28;20218;-63
2023/10/19 00:13:57;;;;;;;0.93;0.60;;;;;;;;;;5066006;28;20210;-63
2023/10/19 00:16:29;;;;;;;2.30;0.70;;;;;;;;;;5077914;28;20310;-63
2023/10/19 00:18:59;;;;;;;0.70;0.70;;;;;;;;;;5074846;28;20717;-64
2023/10/19 00:21:27;;;;;;;0.80;0.70;;;;;;;;;;5074649;28;20314;-62
2023/10/19 00:23:56;;;;;;;1.23;0.80;;;;;;;;;;5075384;28;20211;-64
2023/10/19 00:26:26;;;;;;;0.63;0.63;;;;;;;;;;5075769;28;20219;-62
2023/10/19 00:28:55;;;;;;;1.43;0.60;;;;;;;;;;5063062;28;20256;-65
2023/10/19 00:31:24;;;;;;;0.47;0.47;;;;;;;;;;5076279;28;20210;-64
2023/10/19 00:33:52;;;;;;;1.37;0.80;;;;;;;;;;5076764;28;20684;-65
2023/10/19 00:36:21;;;;;;;0.47;0.40;;;;;;;;;;5074596;28;20629;-65
2023/10/19 00:38:52;;;;;;;1.53;0.87;;;;;;;;;;5075761;28;20230;-65
2023/10/19 00:41:24;;;;;;;0.93;0.60;;;;;;;;;;5076433;28;20226;-65
2023/10/19 00:43:57;;;;;;;1.40;0.50;;;;;;;;;;5069725;28;20213;-65
2023/10/19 00:46:32;;;;;;;0.53;0.53;;;;;;;;;;5075308;28;20210;-65
2023/10/19 00:49:02;;;;;;;0.60;0.60;;;;;;;;;;5076939;28;20217;-65
2023/10/19 00:51:41;;;;;;;1.43;0.67;;;;;;;;;;5076349;28;20261;-65
2023/10/19 00:54:12;;;;;;;0.77;0.63;;;;;;;;;;5075557;28;20237;-65
2023/10/19 00:56:45;;;;;;;2.57;0.80;;;;;;;;;;5064987;28;20559;-65
2023/10/19 00:59:14;;;;;;;0.93;0.53;;;;;;;;;;5065051;28;20643;-65
2023/10/19 01:01:45;;;;;;;1.90;0.70;;;;;;;;;;5077609;28;20241;-65
2023/10/19 01:04:17;;;;;;;1.07;0.80;;;;;;;;;;5071076;28;20297;-65
2023/10/19 01:06:59;;;;;;;1.23;0.47;;;;;;;;;;5067537;28;20646;-65
2023/10/19 01:09:28;;;;;;;0.70;0.70;;;;;;;;;;5071175;28;20288;-65
2023/10/19 01:12:00;;;;;;;0.40;0.40;;;;;;;;;;5081408;28;20702;-65
2023/10/19 01:14:29;;;;;;;0.77;0.30;;;;;;;;;;5078613;28;20294;-65
2023/10/19 01:17:00;;;;;;;0.77;0.53;;;;;;;;;;5080424;28;20206;-65
2023/10/19 01:19:28;;;;;;;0.40;0.40;;;;;;;;;;5078833;28;20198;-65
2023/10/19 01:22:04;;;;;;;1.13;0.63;;;;;;;;;;5075069;28;20256;-65
2023/10/19 01:24:40;;;;;;;0.97;0.63;;;;;;;;;;5079055;28;20289;-66
2023/10/19 01:27:10;;;;;;;2.13;0.70;;;;;;;;;;5067575;28;20205;-65
2023/10/19 01:29:39;;;;;;;0.53;0.40;;;;;;;;;;5071983;28;20249;-65
2023/10/19 01:32:08;;;;;;;0.90;0.60;;;;;;;;;;5081377;28;20202;-65
2023/10/19 01:34:37;;;;;;;0.40;0.40;;;;;;;;;;5078911;28;20289;-65
2023/10/19 01:37:05;;;;;;;1.40;0.63;;;;;;;;;;5081446;28;20218;-65
2023/10/19 01:39:36;;;;;;;0.73;0.60;;;;;;;;;;5077444;28;20252;-65
2023/10/19 01:42:05;;;;;;;1.17;0.70;;;;;;;;;;5079431;28;20755;-65
2023/10/19 01:44:33;;;;;;;0.50;0.50;;;;;;;;;;5078834;28;20284;-65
2023/10/19 01:47:01;;;;;;;2.23;0.70;;;;;;;;;;5078961;28;20297;-65
2023/10/19 01:49:30;;;;;;;0.80;0.60;;;;;;;;;;5079825;28;20281;-65
2023/10/19 01:51:58;;;;;;;0.77;0.50;;;;;;;;;;5079786;28;20268;-65
2023/10/19 01:54:25;;;;;;;2.73;0.80;;;;;;;;;;5080011;28;20206;-65
2023/10/19 01:56:56;;;;;;;0.80;0.80;;;;;;;;;;5068394;28;20294;-65
2023/10/19 01:59:27;;;;;;;1.13;0.80;;;;;;;;;;5070194;28;20209;-65
2023/10/19 02:01:56;;;;;;;1.03;0.67;;;;;;;;;;5078559;28;20226;-65
2023/10/19 02:04:23;;;;;;;1.67;0.70;;;;;;;;;;5079850;28;20232;-65
2023/10/19 02:06:52;;;;;;;2.10;0.80;;;;;;;;;;5067033;28;20226;-65
2023/10/19 02:09:21;;;;;;;2.00;0.70;;;;;;;;;;5072945;28;20208;-65
2023/10/19 02:11:52;;;;;;;1.20;0.70;;;;;;;;;;5091939;28;20286;-65
2023/10/19 02:14:21;;;;;;;0.70;0.70;;;;;;;;;;5091908;28;20198;-65
2023/10/19 02:16:51;;;;;;;1.57;0.70;;;;;;;;;;5080540;28;20210;-65
2023/10/19 02:19:20;;;;;;;0.40;0.40;;;;;;;;;;5075842;28;20210;-65
2023/10/19 02:21:49;;;;;;;0.73;0.70;;;;;;;;;;5080026;28;20573;-63
2023/10/19 02:24:16;;;;;;;0.70;0.60;;;;;;;;;;5079832;28;20544;-63
2023/10/19 02:26:46;;;;;;;0.73;0.50;;;;;;;;;;5075041;28;20679;-65
2023/10/19 02:29:14;;;;;;;0.97;0.60;;;;;;;;;;5061266;28;20229;-63
2023/10/19 02:31:44;;;;;;;2.33;0.70;;;;;;;;;;5073770;28;20309;-65
2023/10/19 02:34:12;;;;;;;1.40;0.60;;;;;;;;;;5076295;28;20264;-65
2023/10/19 02:36:40;;;;;;;0.97;0.67;;;;;;;;;;5059096;28;20235;-63
2023/10/19 02:39:08;;;;;;;1.63;0.50;;;;;;;;;;5062173;28;20290;-63
2023/10/19 02:41:37;;;;;;;1.43;0.53;;;;;;;;;;5071170;28;20260;-63
2023/10/19 02:44:09;;;;;;;0.37;0.37;;;;;;;;;;5078345;28;20245;-63
2023/10/19 02:46:39;;;;;;;0.43;0.27;;;;;;;;;;5080018;28;20287;-63
2023/10/19 02:49:11;;;;;;;0.40;0.40;;;;;;;;;;5078803;28;20549;-65
2023/10/19 02:51:40;;;;;;;0.50;0.50;;;;;;;;;;5078573;28;20245;-65
2023/10/19 02:54:07;;;;;;;0.33;0.33;;;;;;;;;;5078278;28;20205;-65
2023/10/19 02:56:37;;;;;;;1.37;0.50;;;;;;;;;;5069045;28;20293;-63
2023/10/19 02:59:05;;;;;;;1.27;0.50;;;;;;;;;;5075750;28;20195;-65
2023/10/19 03:01:34;;;;;;;0.73;0.43;;;;;;;;;;5070426;28;20651;-63
2023/10/19 03:04:02;;;;;;;1.30;0.53;;;;;;;;;;5076505;28;20203;-64
2023/10/19 03:06:32;;;;;;;1.00;0.30;;;;;;;;;;5078716;28;20227;-63
2023/10/19 03:09:01;;;;;;;1.23;0.77;;;;;;;;;;5077848;28;20299;-63
2023/10/19 03:11:29;;;;;;;0.43;0.43;;;;;;;;;;5069326;28;20261;-64
2023/10/19 03:13:57;;;;;;;0.70;0.40;;;;;;;;;;5078530;28;20198;-63
2023/10/19 03:16:28;;;;;;;2.83;0.50;;;;;;;;;;5079155;28;20245;-64
2023/10/19 03:18:57;;;;;;;2.33;0.60;;;;;;;;;;5073175;28;20207;-64
2023/10/19 03:21:27;;;;;;;0.70;0.70;;;;;;;;;;5063113;28;20267;-63
2023/10/19 03:23:56;;;;;;;1.30;0.60;;;;;;;;;;5071598;28;20678;-64
2023/10/19 03:26:30;;;;;;;1.70;0.50;;;;;;;;;;5072711;28;20285;-64
2023/10/19 03:29:02;;;;;;;0.60;0.60;;;;;;;;;;5076203;28;20572;-64
2023/10/19 03:31:32;;;;;;;1.07;0.70;;;;;;;;;;5074405;28;20227;-64
2023/10/19 03:34:05;;;;;;;1.50;0.70;;;;;;;;;;5072475;28;20206;-64
2023/10/19 03:36:33;;;;;;;2.73;0.77;;;;;;;;;;5076265;28;20208;-64
2023/10/19 03:39:11;;;;;;;2.97;0.53;;;;;;;;;;5071606;28;20211;-64
2023/10/19 03:41:41;;;;;;;0.80;0.63;;;;;;;;;;5070152;28;20305;-64
2023/10/19 03:44:16;;;;;;;1.17;0.77;;;;;;;;;;5077597;28;20210;-64
2023/10/19 03:46:56;;;;;;;0.60;0.47;;;;;;;;;;5078900;28;20220;-64
2023/10/19 03:49:26;;;;;;;1.13;0.90;;;;;;;;;;5077833;28;20198;-64
2023/10/19 03:52:02;;;;;;;0.60;0.60;;;;;;;;;;5078238;28;20677;-64
2023/10/19 03:54:33;;;;;;;2.07;0.67;;;;;;;;;;5077258;28;20230;-64
2023/10/19 03:57:06;;;;;;;1.73;0.40;;;;;;;;;;5066065;28;20233;-64
2023/10/19 03:59:34;;;;;;;2.00;0.63;;;;;;;;;;5063153;28;20203;-64
2023/10/19 04:02:09;;;;;;;0.50;0.50;;;;;;;;;;5078479;28;20239;-64
2023/10/19 04:04:39;;;;;;;0.70;0.50;;;;;;;;;;5077177;28;20213;-64
2023/10/19 04:07:18;;;;;;;2.67;1.27;;;;;;;;;;5078479;28;20202;-64
2023/10/19 04:09:59;;;;;;;0.73;0.43;;;;;;;;;;5072898;28;20666;-64
2023/10/19 04:12:30;;;;;;;0.87;0.50;;;;;;;;;;5087174;28;20201;-64
2023/10/19 04:14:58;;;;;;;0.33;0.33;;;;;;;;;;5084861;28;20210;-64
2023/10/19 04:17:27;;;;;;;0.57;0.37;;;;;;;;;;5071977;28;20665;-64
2023/10/19 04:19:55;;;;;;;0.40;0.40;;;;;;;;;;5077857;28;20293;-64
2023/10/19 04:22:23;;;;;;;1.70;0.30;;;;;;;;;;5077856;28;20639;-65
2023/10/19 04:24:53;;;;;;;1.23;0.53;;;;;;;;;;5077852;28;20238;-64
2023/10/19 04:27:22;;;;;;;0.70;0.57;;;;;;;;;;5072816;28;20567;-64
2023/10/19 04:29:51;;;;;;;1.63;1.00;;;;;;;;;;5074240;28;20209;-64
2023/10/19 04:32:25;;;;;;;2.23;0.40;;;;;;;;;;5065880;28;20252;-64
2023/10/19 04:34:53;;;;;;;1.27;0.40;;;;;;;;;;5072525;28;20206;-64
2023/10/19 04:37:23;;;;;;;1.80;0.60;;;;;;;;;;5075630;28;20643;-64
2023/10/19 04:39:53;;;;;;;2.37;1.10;;;;;;;;;;5066566;28;20721;-64
2023/10/19 04:42:22;;;;;;;0.77;0.50;;;;;;;;;;5071177;28;20225;-64
2023/10/19 04:44:51;;;;;;;0.83;0.50;;;;;;;;;;5076739;28;20543;-64
2023/10/19 04:47:19;;;;;;;1.70;0.57;;;;;;;;;;5077904;28;20202;-64
2023/10/19 04:49:47;;;;;;;0.40;0.30;;;;;;;;;;5064613;28;20213;-64
2023/10/19 04:52:17;;;;;;;4.13;0.80;;;;;;;;;;5078015;28;20238;-64
2023/10/19 04:54:45;;;;;;;1.90;0.67;;;;;;;;;;5066181;28;20199;-64
2023/10/19 04:57:14;;;;;;;0.70;0.47;;;;;;;;;;5077635;28;20294;-64
2023/10/19 04:59:45;;;;;;;2.67;1.07;;;;;;;;;;5069256;28;20202;-64
2023/10/19 05:02:13;;;;;;;0.73;0.40;;;;;;;;;;5076992;28;20237;-64
2023/10/19 05:04:41;;;;;;;1.53;0.67;;;;;;;;;;5077356;28;20202;-64
2023/10/19 05:07:12;;;;;;;0.47;0.40;;;;;;;;;;5078644;28;20582;-63
2023/10/19 05:09:40;;;;;;;2.23;0.63;;;;;;;;;;5075566;28;20221;-63
2023/10/19 05:12:09;;;;;;;14.87;3.20;;;;;;;;;;5080680;28;20207;-63
2023/10/19 05:14:39;;;;;;;2.10;1.30;;;;;;;;;;5068592;28;20293;-64
2023/10/19 05:17:08;;;;;;;4.17;1.07;;;;;;;;;;5066797;28;20210;-64
2023/10/19 05:19:37;;;;;;;3.17;0.90;;;;;;;;;;5057901;28;20222;-65
2023/10/19 05:22:07;;;;;;;2.80;0.90;;;;;;;;;;5075437;28;20226;-65
2023/10/19 05:24:35;;;;;;;1.80;0.97;;;;;;;;;;5065466;28;20640;-65
2023/10/19 05:27:03;;;;;;;2.57;0.80;;;;;;;;;;5077562;28;20206;-65
2023/10/19 05:29:32;;;;;;;1.00;0.60;;;;;;;;;;5061985;28;20203;-63
2023/10/19 05:32:02;;;;;;;1.60;0.97;;;;;;;;;;5063022;28;20218;-65
2023/10/19 05:34:32;;;;;;;1.97;0.50;;;;;;;;;;5069829;28;20202;-65
2023/10/19 05:37:02;;;;;;;4.80;0.47;;;;;;;;;;5078209;28;20202;-64
2023/10/19 05:39:31;;;;;;;1.63;0.80;;;;;;;;;;5081073;28;20212;-65
2023/10/19 05:42:00;;;;;;;2.20;0.47;;;;;;;;;;5064135;28;20227;-64
2023/10/19 05:44:30;;;;;;;0.40;0.40;;;;;;;;;;5074530;28;20245;-66
2023/10/19 05:46:59;;;;;;;15.77;6.03;;;;;;;;;;5076918;28;20233;-64
2023/10/19 05:49:29;;;;;;;2.60;0.70;;;;;;;;;;5076994;28;20213;-65
2023/10/19 05:51:57;;;;;;;1.23;0.73;;;;;;;;;;5068721;28;20277;-65
2023/10/19 05:54:29;;;;;;;1.03;0.67;;;;;;;;;;5078228;28;20206;-65
2023/10/19 05:56:58;;;;;;;4.53;0.80;;;;;;;;;;5080751;28;20210;-65
2023/10/19 05:59:29;;;;;;;0.53;0.53;;;;;;;;;;5078694;28;20228;-64
2023/10/19 06:01:57;;;;;;;1.00;0.90;;;;;;;;;;5059520;28;20686;-64
2023/10/19 06:04:25;;;;;;;1.33;0.90;;;;;;;;;;5064113;28;20226;-64
2023/10/19 06:06:56;;;;;;;1.00;0.80;;;;;;;;;;5100455;28;20210;-64
2023/10/19 06:09:29;;;;;;;1.87;0.83;;;;;;;;;;5079235;28;20256;-64
2023/10/19 06:11:57;;;;;;;0.97;0.80;;;;;;;;;;5080681;28;20304;-64
2023/10/19 06:14:25;;;;;;;0.70;0.50;;;;;;;;;;5098665;28;20653;-64
2023/10/19 06:16:58;;;;;;;2.77;0.50;;;;;;;;;;5078898;28;20245;-62
2023/10/19 06:19:26;;;;;;;0.57;0.57;;;;;;;;;;5075254;28;20678;-62
2023/10/19 06:21:56;;;;;;;1.67;0.57;;;;;;;;;;5072667;28;20268;-62
2023/10/19 06:24:24;;;;;;;1.77;0.80;;;;;;;;;;5076916;28;20233;-62
2023/10/19 06:26:52;;;;;;;2.03;0.90;;;;;;;;;;5064834;28;20211;-64
2023/10/19 06:29:24;;;;;;;1.10;0.80;;;;;;;;;;5079530;28;20238;-64
2023/10/19 06:31:54;;;;;;;2.90;0.87;;;;;;;;;;5078527;28;20226;-64
2023/10/19 06:34:24;;;;;;;1.50;0.80;;;;;;;;;;5066136;28;20203;-64
2023/10/19 06:36:55;;;;;;;1.00;0.90;;;;;;;;;;5067714;28;20207;-64
2023/10/19 06:39:25;;;;;;;1.50;0.90;;;;;;;;;;5077106;28;20613;-64
2023/10/19 06:42:02;;;;;;;1.07;0.97;;;;;;;;;;5075176;28;20231;-64
2023/10/19 06:44:32;;;;;;;5.90;1.50;;;;;;;;;;5078290;28;20218;-64
2023/10/19 06:47:00;;;;;;;3.23;1.40;;;;;;;;;;5067194;28;20215;-64
2023/10/19 06:49:30;;;;;;;4.30;1.40;;;;;;;;;;5067598;28;20203;-64
2023/10/19 06:51:58;;;;;;;1.17;1.07;;;;;;;;;;5063957;28;20301;-64
2023/10/19 06:54:29;;;;;;;1.10;1.10;;;;;;;;;;5071942;28;20201;-63
2023/10/19 06:56:57;;;;;;;1.97;0.90;;;;;;;;;;5072680;28;20202;-64
2023/10/19 06:59:25;;;;;;;1.53;0.83;;;;;;;;;;5066895;28;20610;-64
2023/10/19 07:01:53;;;;;;;4.07;1.13;;;;;;;;;;5079727;28;20236;-64
2023/10/19 07:04:22;;;;;;;5.10;0.90;;;;;;;;;;5078934;28;20230;-64
2023/10/19 07:06:50;;;;;;;2.17;0.77;;;;;;;;;;5077228;28;20230;-64
2023/10/19 07:09:22;;;;;;;1.57;0.70;;;;;;;;;;5075643;28;20206;-64
2023/10/19 07:11:54;;;;;;;0.70;0.70;;;;;;;;;;5075502;28;20277;-64
2023/10/19 07:14:23;;;;;;;0.60;0.60;;;;;;;;;;5077976;28;20198;-64
2023/10/19 07:16:52;;;;;;;2.40;0.90;;;;;;;;;;5076787;28;20217;-64
2023/10/19 07:19:20;;;;;;;2.13;1.17;;;;;;;;;;5079513;28;20208;-64
2023/10/19 07:21:53;;;;;;;0.67;0.67;;;;;;;;;;5079215;28;20271;-64
2023/10/19 07:24:23;;;;;;;2.30;1.07;;;;;;;;;;5072091;28;20687;-64
2023/10/19 07:27:03;;;;;;;3.23;0.83;;;;;;;;;;5073705;28;20245;-64
2023/10/19 07:29:33;;;;;;;2.33;0.87;;;;;;;;;;5079162;28;20209;-64
2023/10/19 07:32:02;;;;;;;0.90;0.90;;;;;;;;;;5078767;28;20257;-64
2023/10/19 07:34:33;;;;;;;2.70;1.40;;;;;;;;;;5078802;28;20198;-62
2023/10/19 07:37:01;;;;;;;2.43;1.30;;;;;;;;;;5079161;28;20232;-62
2023/10/19 07:39:30;;;;;;;3.47;1.10;;;;;;;;;;5078783;28;20206;-62
2023/10/19 07:41:59;;;;;;;2.60;0.90;;;;;;;;;;5070868;28;20257;-62
2023/10/19 07:44:30;;;;;;;1.93;0.93;;;;;;;;;;5079955;28;20270;-61
2023/10/19 07:46:58;;;;;;;1.77;1.00;;;;;;;;;;5098782;28;20212;-64
2023/10/19 07:49:27;;;;;;;2.40;1.00;;;;;;;;;;5073250;28;20202;-64
2023/10/19 07:51:55;;;;;;;2.47;1.00;;;;;;;;;;5078119;28;20312;-64
2023/10/19 07:54:27;;;;;;;1.13;0.87;;;;;;;;;;5077165;28;20209;-64
2023/10/19 07:56:57;;;;;;;2.00;1.00;;;;;;;;;;5079851;28;20225;-65
2023/10/19 07:59:27;;;;;;;5.60;2.67;;;;;;;;;;5082953;28;20202;-66
2023/10/19 08:01:55;;;;;;;2.30;1.10;;;;;;;;;;5078202;28;20701;-65
2023/10/19 08:04:25;;;;;;;5.63;1.10;;;;;;;;;;5096210;28;20716;-66
2023/10/19 08:06:53;;;;;;;3.13;1.30;;;;;;;;;;5071570;28;20723;-66
2023/10/19 08:09:23;;;;;;;2.53;1.20;;;;;;;;;;5073118;28;20210;-66
2023/10/19 08:11:55;;;;;;;2.27;1.20;;;;;;;;;;5078264;28;20226;-68
2023/10/19 08:14:24;;;;;;;1.77;0.97;;;;;;;;;;5078101;28;20206;-68
2023/10/19 08:16:54;;;;;;;2.80;0.83;;;;;;;;;;5064096;28;20207;-68
2023/10/19 08:19:22;;;;;;;3.27;1.03;;;;;;;;;;5075405;28;20216;-67
2023/10/19 08:21:50;;;;;;;2.50;1.10;;;;;;;;;;5077819;28;20724;-67
2023/10/19 08:24:20;;;;;;;1.10;1.00;;;;;;;;;;5071971;28;20283;-69
2023/10/19 08:26:48;;;;;;;1.77;1.00;;;;;;;;;;5078006;28;20205;-68
2023/10/19 08:29:19;;;;;;;0.90;0.90;;;;;;;;;;5077987;28;20268;-68
2023/10/19 08:31:47;;;;;;;4.10;0.90;;;;;;;;;;5075803;28;20234;-69
2023/10/19 08:34:17;;;;;;;3.00;1.20;;;;;;;;;;5077522;28;20206;-68
2023/10/19 08:36:45;;;;;;;1.97;1.13;;;;;;;;;;5078097;28;20272;-68
2023/10/19 08:39:13;;;;;;;2.13;1.13;;;;;;;;;;5077486;28;20306;-67
2023/10/19 08:41:43;;;;;;;1.07;0.97;;;;;;;;;;5065065;28;20223;-68
2023/10/19 08:44:11;;;;;;;4.03;1.33;;;;;;;;;;5077518;28;20720;-68
2023/10/19 08:46:43;;;;;;;2.17;1.27;;;;;;;;;;5077478;28;20228;-68
2023/10/19 08:49:12;;;;;;;2.07;1.23;;;;;;;;;;5072715;28;20609;-67
2023/10/19 08:51:45;;;;;;;5.43;1.20;;;;;;;;;;5073274;28;20755;-69
2023/10/19 08:54:13;;;;;;;2.00;1.40;;;;;;;;;;5066019;28;20201;-68
2023/10/19 08:56:42;;;;;;;4.80;1.87;;;;;;;;;;5068416;28;20202;-69
2023/10/19 08:59:11;;;;;;;5.13;1.73;;;;;;;;;;5073522;28;20220;-69
2023/10/19 09:01:39;;;;;;;3.47;1.33;;;;;;;;;;5077304;28;20279;-70
2023/10/19 09:04:08;;;;;;;1.70;1.13;;;;;;;;;;5063188;28;20281;-70
2023/10/19 09:06:41;;;;;;;4.00;1.40;;;;;;;;;;5072261;28;20210;-70
2023/10/19 09:09:16;;;;;;;2.53;1.20;;;;;;;;;;5067564;28;20210;-70
2023/10/19 09:11:44;;;;;;;4.30;1.50;;;;;;;;;;5074071;28;20221;-70
2023/10/19 09:14:13;;;;;;;2.50;1.20;;;;;;;;;;5073877;28;20282;-69
2023/10/19 09:16:55;;;;;;;1.97;1.33;;;;;;;;;;5077410;28;20256;-70
2023/10/19 09:19:37;;;;;;;1.83;1.00;;;;;;;;;;5091642;28;20229;-69
2023/10/19 09:22:07;;;;;;;2.17;1.43;;;;;;;;;;5097785;28;20225;-70
2023/10/19 09:24:38;;;;;;;1.60;1.30;;;;;;;;;;5077963;28;20226;-70
2023/10/19 09:27:07;;;;;;;1.60;1.00;;;;;;;;;;5086737;28;20285;-70
2023/10/19 09:29:36;;;;;;;3.07;1.03;;;;;;;;;;5101499;28;20205;-70
2023/10/19 09:32:04;;;;;;;2.53;1.20;;;;;;;;;;5085524;28;20704;-70
2023/10/19 09:34:33;;;;;;;3.20;1.47;;;;;;;;;;5079870;28;20207;-71
2023/10/19 09:37:02;;;;;;;4.33;1.50;;;;;;;;;;5081535;28;20687;-69
2023/10/19 09:39:34;;;;;;;2.17;1.30;;;;;;;;;;5080883;28;20621;-70
2023/10/19 09:42:06;;;;;;;1.80;1.00;;;;;;;;;;5080919;28;20685;-69
2023/10/19 09:44:40;;;;;;;2.43;1.50;;;;;;;;;;5081090;28;20238;-70
2023/10/19 09:47:12;;;;;;;2.00;1.17;;;;;;;;;;5081391;28;20259;-69
2023/10/19 09:49:42;;;;;;;2.73;1.57;;;;;;;;;;5075969;28;20208;-70
2023/10/19 09:52:13;;;;;;;1.10;1.00;;;;;;;;;;5080956;28;20206;-68
2023/10/19 09:54:47;;;;;;;1.20;1.10;;;;;;;;;;5080553;28;20206;-67
2023/10/19 09:57:19;;;;;;;2.20;1.20;;;;;;;;;;5066094;28;20207;-68
2023/10/19 09:59:51;;;;;;;3.50;1.17;;;;;;;;;;5077894;28;20212;-67
2023/10/19 10:02:22;;;;;;;1.57;0.90;;;;;;;;;;5080614;28;20216;-68
2023/10/19 10:04:54;;;;;;;1.63;1.27;;;;;;;;;;5078116;28;20680;-72
2023/10/19 10:07:21;;;;;;;2.20;1.80;;;;;;;;;;5067291;28;20726;-71
2023/10/19 10:10:09;;;;;;;3.20;2.63;;;;;;;;;;5080766;28;20241;-70
2023/10/19 10:12:39;;;;;;;3.50;2.63;;;;;;;;;;5080519;28;20208;-71
2023/10/19 10:15:07;;;;;;;6.40;3.20;;;;;;;;;;5071089;28;20206;-72
2023/10/19 10:17:37;;;;;;;3.33;1.67;;;;;;;;;;5085351;28;20198;-72
2023/10/19 10:20:24;;;;;;;1.53;1.43;;;;;;;;;;5080283;28;20253;-71
2023/10/19 10:23:17;;;;;;;2.67;1.37;;;;;;;;;;5082138;28;20700;-71
2023/10/19 10:25:48;;;;;;;1.53;1.30;;;;;;;;;;5080285;28;20313;-71
2023/10/19 10:28:18;;;;;;;1.97;1.47;;;;;;;;;;5079978;28;20213;-72
2023/10/19 10:31:16;;;;;;;1.40;1.30;;;;;;;;;;5064817;28;20312;-72
2023/10/19 10:33:48;;;;;;;3.13;1.63;;;;;;;;;;5018120;28;20284;-70
2023/10/19 10:36:17;;;;;;;2.10;1.30;;;;;;;;;;5051675;28;20198;-70
2023/10/19 10:38:46;;;;;;;4.57;1.67;;;;;;;;;;5069430;28;20213;-70
2023/10/19 10:41:20;;;;;;;1.80;1.70;;;;;;;;;;5073156;28;20219;-71
2023/10/19 10:43:52;;;;;;;1.90;1.80;;;;;;;;;;5078079;28;20240;-68
2023/10/19 10:46:21;;;;;;;1.83;1.60;;;;;;;;;;5077967;28;20226;-70
2023/10/19 10:48:49;;;;;;;2.67;1.97;;;;;;;;;;5068570;28;20572;-70
2023/10/19 10:51:18;;;;;;;1.87;1.77;;;;;;;;;;5078458;28;20249;-67
2023/10/19 10:53:48;;;;;;;2.77;1.93;;;;;;;;;;5079399;28;20247;-68
2023/10/19 10:56:16;;;;;;;4.00;2.13;;;;;;;;;;5079210;28;20206;-70
2023/10/19 10:58:44;;;;;;;3.03;1.93;;;;;;;;;;5079349;28;20214;-65
2023/10/19 11:01:14;;;;;;;2.50;2.30;;;;;;;;;;5079633;28;20226;-67
2023/10/19 11:03:42;;;;;;;2.90;2.27;;;;;;;;;;5079565;28;20241;-65
2023/10/19 11:06:11;;;;;;;2.93;2.20;;;;;;;;;;5073619;28;20727;-63
2023/10/19 11:08:39;;;;;;;3.57;2.43;;;;;;;;;;5099312;28;20293;-64
2023/10/19 11:11:10;;;;;;;2.43;1.93;;;;;;;;;;5088925;28;20645;-64
2023/10/19 11:13:39;;;;;;;4.97;2.20;;;;;;;;;;5078617;28;20230;-63
2023/10/19 11:16:09;;;;;;;3.27;2.50;;;;;;;;;;5078229;28;20217;-63
2023/10/19 11:18:40;;;;;;;3.27;2.40;;;;;;;;;;5078554;28;20203;-63
2023/10/19 11:21:09;;;;;;;3.90;2.20;;;;;;;;;;5079119;28;20293;-63
2023/10/19 11:23:42;;;;;;;9.63;7.67;;;;;;;;;;5067568;28;20678;-63
2023/10/19 11:26:10;;;;;;;3.03;2.50;;;;;;;;;;5066177;28;20309;-63
2023/10/19 11:28:47;;;;;;;5.50;2.83;;;;;;;;;;5074987;28;20205;-65
2023/10/19 11:31:16;;;;;;;2.40;2.20;;;;;;;;;;5083751;28;20221;-64
2023/10/19 11:33:48;;;;;;;5.37;2.43;;;;;;;;;;5097437;28;20292;-65
2023/10/19 11:36:17;;;;;;;3.23;2.47;;;;;;;;;;5078768;28;20202;-64
2023/10/19 11:38:45;;;;;;;5.30;2.10;;;;;;;;;;5076980;28;20237;-65
2023/10/19 11:41:14;;;;;;;2.57;2.37;;;;;;;;;;5072642;28;20256;-65
2023/10/19 11:43:43;;;;;;;4.30;2.73;;;;;;;;;;5078595;28;20555;-65
2023/10/19 11:46:12;;;;;;;2.70;2.33;;;;;;;;;;5078670;28;20271;-66
2023/10/19 11:48:42;;;;;;;3.60;2.50;;;;;;;;;;5097579;28;20205;-65
2023/10/19 11:51:13;;;;;;;5.33;2.37;;;;;;;;;;5098128;28;20276;-65
2023/10/19 11:53:42;;;;;;;2.63;2.10;;;;;;;;;;5063609;28;20242;-65
2023/10/19 11:56:12;;;;;;;2.80;2.37;;;;;;;;;;5073615;28;20217;-65
2023/10/19 11:58:41;;;;;;;3.70;2.53;;;;;;;;;;5078507;28;20202;-64
2023/10/19 12:01:12;;;;;;;2.97;2.67;;;;;;;;;;5078382;28;20258;-64
2023/10/19 12:03:40;;;;;;;3.17;2.90;;;;;;;;;;5078311;28;20206;-64
2023/10/19 12:06:10;;;;;;;3.13;2.93;;;;;;;;;;5078287;28;20268;-64
2023/10/19 12:08:40;;;;;;;6.73;3.57;;;;;;;;;;5077942;28;20289;-63
2023/10/19 12:11:15;;;;;;;4.07;3.33;;;;;;;;;;5078267;28;20233;-64
2023/10/19 12:13:44;;;;;;;3.80;3.33;;;;;;;;;;5068453;28;20628;-64
2023/10/19 12:16:15;;;;;;;4.57;3.70;;;;;;;;;;5076552;28;20202;-64
2023/10/19 12:18:44;;;;;;;7.23;3.70;;;;;;;;;;5078111;28;20249;-64
2023/10/19 12:21:12;;;;;;;4.30;3.90;;;;;;;;;;5077998;28;20253;-63
2023/10/19 12:23:43;;;;;;;4.23;2.23;;;;;;;;;;5077724;28;20194;-63
2023/10/19 12:26:12;;;;;;;4.17;2.13;;;;;;;;;;5065041;28;20222;-63
2023/10/19 12:28:40;;;;;;;3.77;1.63;;;;;;;;;;5077978;28;20650;-63
2023/10/19 12:31:10;;;;;;;5.07;1.97;;;;;;;;;;5072155;28;20226;-64
2023/10/19 12:33:39;;;;;;;7.43;1.63;;;;;;;;;;5074279;28;20198;-64
2023/10/19 12:36:24;;;;;;;3.03;1.17;;;;;;;;;;5078022;28;20206;-63
2023/10/19 12:38:54;;;;;;;3.27;1.23;;;;;;;;;;5070274;28;20308;-64
2023/10/19 12:41:23;;;;;;;3.27;1.40;;;;;;;;;;5074086;28;20268;-63
2023/10/19 12:43:52;;;;;;;4.77;2.40;;;;;;;;;;5076869;28;20289;-63
2023/10/19 12:46:24;;;;;;;2.03;1.27;;;;;;;;;;5077001;28;20268;-63
2023/10/19 12:48:52;;;;;;;5.03;2.03;;;;;;;;;;5076802;28;20217;-64
2023/10/19 12:51:23;;;;;;;3.00;1.20;;;;;;;;;;5077373;28;20269;-63
2023/10/19 12:53:53;;;;;;;6.63;1.73;;;;;;;;;;5069110;28;20198;-63
2023/10/19 12:56:21;;;;;;;10.43;2.50;;;;;;;;;;5072824;28;20238;-63
2023/10/19 12:58:49;;;;;;;15.27;3.30;;;;;;;;;;5086206;28;20237;-63
2023/10/19 13:01:18;;;;;;;4.63;1.53;;;;;;;;;;5078817;28;20230;-63
2023/10/19 13:03:46;;;;;;;6.47;1.53;;;;;;;;;;5075523;28;20292;-63
2023/10/19 13:06:15;;;;;;;3.40;1.60;;;;;;;;;;5074212;28;20750;-63
2023/10/19 13:08:43;;;;;;;5.43;1.83;;;;;;;;;;5077104;28;20206;-64
2023/10/19 13:11:14;;;;;;;6.57;1.90;;;;;;;;;;5074733;28;20285;-63
2023/10/19 13:13:45;;;;;;;3.43;1.83;;;;;;;;;;5097688;28;20205;-63
2023/10/19 13:16:14;;;;;;;9.40;1.83;;;;;;;;;;5097582;28;20205;-63
2023/10/19 13:18:42;;;;;;;3.60;1.50;;;;;;;;;;5097278;28;20647;-63
2023/10/19 13:21:11;;;;;;;5.70;2.00;;;;;;;;;;5086718;28;20239;-64
2023/10/19 13:23:41;;;;;;;6.37;1.70;;;;;;;;;;5070285;28;20206;-62
2023/10/19 13:26:17;;;;;;;7.57;1.50;;;;;;;;;;5077572;28;20215;-63
2023/10/19 13:28:48;;;;;;;3.87;1.37;;;;;;;;;;5077122;28;20233;-64
2023/10/19 13:31:19;;;;;;;3.33;1.47;;;;;;;;;;5077357;28;20258;-64
2023/10/19 13:33:47;;;;;;;4.77;1.83;;;;;;;;;;5077348;28;20206;-63
2023/10/19 13:36:15;;;;;;;55.50;9.87;;;;;;;;;;5077053;28;20554;-63
2023/10/19 13:38:44;;;;;;;45.63;9.17;;;;;;;;;;5071587;28;20972;-63
2023/10/19 13:41:13;;;;;;;15.63;3.60;;;;;;;;;;5077167;28;20234;-63
2023/10/19 13:43:42;;;;;;;15.23;3.53;;;;;;;;;;5077392;28;20206;-64
2023/10/19 13:46:12;;;;;;;5.50;2.20;;;;;;;;;;5077419;28;20204;-64
2023/10/19 13:48:40;;;;;;;4.77;1.73;;;;;;;;;;5077061;28;20222;-64
2023/10/19 13:51:13;;;;;;;4.10;1.83;;;;;;;;;;5076912;28;20239;-63
2023/10/19 13:53:43;;;;;;;5.53;2.60;;;;;;;;;;5067335;28;20206;-63
2023/10/19 13:56:11;;;;;;;6.37;1.80;;;;;;;;;;5072318;28;20205;-62
2023/10/19 13:58:39;;;;;;;4.90;1.50;;;;;;;;;;5071923;28;20195;-64
2023/10/19 14:01:08;;;;;;;5.87;1.80;;;;;;;;;;5075268;28;20258;-65
2023/10/19 14:03:38;;;;;;;3.33;1.80;;;;;;;;;;5070732;28;20297;-62
2023/10/19 14:06:13;;;;;;;4.00;1.57;;;;;;;;;;5071645;28;20664;-63
2023/10/19 14:08:41;;;;;;;6.50;1.63;;;;;;;;;;5076679;28;20304;-63
2023/10/19 14:11:09;;;;;;;6.53;1.57;;;;;;;;;;5076754;28;20720;-63
2023/10/19 14:13:37;;;;;;;2.43;1.33;;;;;;;;;;5069830;28;20578;-62
2023/10/19 14:16:06;;;;;;;6.30;1.60;;;;;;;;;;5078053;28;20211;-64
2023/10/19 14:18:34;;;;;;;7.77;2.07;;;;;;;;;;5100789;28;20204;-62
2023/10/19 14:21:11;;;;;;;5.77;2.00;;;;;;;;;;5100443;28;20728;-64
2023/10/19 14:23:40;;;;;;;5.67;1.90;;;;;;;;;;5100455;28;20729;-62
2023/10/19 14:26:09;;;;;;;3.73;1.30;;;;;;;;;;5100457;28;20629;-62
2023/10/19 14:28:37;;;;;;;2.47;1.50;;;;;;;;;;5099470;28;20227;-65
2023/10/19 14:31:07;;;;;;;3.37;1.20;;;;;;;;;;5067171;28;20228;-62
2023/10/19 14:33:35;;;;;;;4.43;1.40;;;;;;;;;;5080257;28;20681;-64
2023/10/19 14:36:05;;;;;;;8.40;1.63;;;;;;;;;;5080255;28;20289;-63
2023/10/19 14:38:35;;;;;;;7.97;1.63;;;;;;;;;;5079816;28;20202;-64
2023/10/19 14:41:03;;;;;;;3.07;1.20;;;;;;;;;;5081177;28;20313;-63
2023/10/19 14:43:32;;;;;;;5.50;1.23;;;;;;;;;;5080208;28;20236;-63
2023/10/19 14:46:03;;;;;;;1.93;1.00;;;;;;;;;;5076109;28;20279;-63
2023/10/19 14:48:31;;;;;;;4.47;1.20;;;;;;;;;;5076232;28;20259;-63
2023/10/19 14:50:59;;;;;;;2.90;1.20;;;;;;;;;;5079327;28;20306;-61
2023/10/19 14:53:28;;;;;;;4.53;1.00;;;;;;;;;;5079292;28;20249;-62
2023/10/19 14:55:56;;;;;;;4.57;0.90;;;;;;;;;;5080069;28;20212;-63
2023/10/19 14:58:25;;;;;;;5.30;1.20;;;;;;;;;;5076102;28;21962;-62
2023/10/19 15:00:55;;;;;;;3.83;1.00;;;;;;;;;;5071577;28;20251;-62